Pagrindinis puslapis
METAR-TAF:

METAR-TAF

Oro uostai :

Rietis, Italija

platuma: 42-25N, ilguma: 012-51E, Aukštis: 389 m

Dabartinis oras

Ataskaita buvo paskelbta 1 valandą ir 5 minutes, ne 10:50 UTC
Vėjas 3 kt nuo kintamojo kryptimis
Temperatūra 23°C
Drėgmė 41%
Slėgis 1022 hPa
Matomumas 10 km arba daugiau
nėra debesų žemiau 1500 m ir nėra kamuolinių lietaus debesų

METAR: LIQN 211050Z VRB03KT CAVOK 23/09 Q1022

Laikas: 13:55 (11:55 UTC)


TAF: trūkstamas

Orai ataskaitas ir orų prognozės (METAR, TAF).

turimą stotys yra geltonos ir raudonos taškus žemėlapyje.

Perkelti pele per norėdami pamatyti stoties vardą.

Tada spustelėkite, norėdami matyti oro stebėjimo ir prognozės.

Norėdami pakeisti žemėlapį: spustelėkite ant žalios mygtukų su juodo kryžiaus žemyn,; žalią mygtuką su brūkšneliu, jei norite nutolinti; arba žalių rodyklių gretimoms žemėlapius.


METAR-TAF: